sensor_id;sensor_type;location;lat;lon;timestamp;temperature;humidity
39519;DHT22;25200;53.394;10.414;2023-11-18T00:01:05;5.40;90.40
39519;DHT22;25200;53.394;10.414;2023-11-18T00:03:31;5.40;90.50
39519;DHT22;25200;53.394;10.414;2023-11-18T00:05:57;5.50;90.40
39519;DHT22;25200;53.394;10.414;2023-11-18T00:08:23;5.50;90.40
39519;DHT22;25200;53.394;10.414;2023-11-18T00:10:48;5.50;90.40
39519;DHT22;25200;53.394;10.414;2023-11-18T00:13:14;5.50;90.50
39519;DHT22;25200;53.394;10.414;2023-11-18T00:15:41;5.50;90.60
39519;DHT22;25200;53.394;10.414;2023-11-18T00:18:08;5.50;90.50
39519;DHT22;25200;53.394;10.414;2023-11-18T00:20:33;5.50;90.40
39519;DHT22;25200;53.394;10.414;2023-11-18T00:23:01;5.50;90.60
39519;DHT22;25200;53.394;10.414;2023-11-18T00:25:30;5.50;90.60
39519;DHT22;25200;53.394;10.414;2023-11-18T00:27:57;5.60;90.50
39519;DHT22;25200;53.394;10.414;2023-11-18T00:30:22;5.60;90.50
39519;DHT22;25200;53.394;10.414;2023-11-18T00:32:48;5.60;90.50
39519;DHT22;25200;53.394;10.414;2023-11-18T00:35:14;5.60;90.50
39519;DHT22;25200;53.394;10.414;2023-11-18T00:37:40;5.60;90.60
39519;DHT22;25200;53.394;10.414;2023-11-18T00:40:07;5.60;90.60
39519;DHT22;25200;53.394;10.414;2023-11-18T00:42:34;5.60;90.60
39519;DHT22;25200;53.394;10.414;2023-11-18T00:44:59;5.60;90.70
39519;DHT22;25200;53.394;10.414;2023-11-18T00:47:25;5.60;90.60
39519;DHT22;25200;53.394;10.414;2023-11-18T00:49:50;5.60;90.60
39519;DHT22;25200;53.394;10.414;2023-11-18T00:52:18;5.60;90.50
39519;DHT22;25200;53.394;10.414;2023-11-18T00:54:44;5.60;90.70
39519;DHT22;25200;53.394;10.414;2023-11-18T00:57:10;5.60;90.70
39519;DHT22;25200;53.394;10.414;2023-11-18T00:59:35;5.60;90.70
39519;DHT22;25200;53.394;10.414;2023-11-18T01:02:01;5.60;90.60
39519;DHT22;25200;53.394;10.414;2023-11-18T01:04:29;5.70;90.50
39519;DHT22;25200;53.394;10.414;2023-11-18T01:06:58;5.70;90.60
39519;DHT22;25200;53.394;10.414;2023-11-18T01:09:24;5.70;90.70
39519;DHT22;25200;53.394;10.414;2023-11-18T01:11:50;5.70;90.60
39519;DHT22;25200;53.394;10.414;2023-11-18T01:14:16;5.70;90.50
39519;DHT22;25200;53.394;10.414;2023-11-18T01:16:43;5.70;90.50
39519;DHT22;25200;53.394;10.414;2023-11-18T01:19:09;5.70;90.60
39519;DHT22;25200;53.394;10.414;2023-11-18T01:21:35;5.70;90.60
39519;DHT22;25200;53.394;10.414;2023-11-18T01:24:02;5.70;90.50
39519;DHT22;25200;53.394;10.414;2023-11-18T01:26:28;5.70;90.60
39519;DHT22;25200;53.394;10.414;2023-11-18T01:28:53;5.70;90.70
39519;DHT22;25200;53.394;10.414;2023-11-18T01:31:21;5.70;91.00
39519;DHT22;25200;53.394;10.414;2023-11-18T01:33:47;5.70;90.70
39519;DHT22;25200;53.394;10.414;2023-11-18T01:36:15;5.70;90.70
39519;DHT22;25200;53.394;10.414;2023-11-18T01:38:43;5.70;90.70
39519;DHT22;25200;53.394;10.414;2023-11-18T01:41:09;5.70;90.70
39519;DHT22;25200;53.394;10.414;2023-11-18T01:43:34;5.80;90.70
39519;DHT22;25200;53.394;10.414;2023-11-18T01:46:06;5.70;90.70
39519;DHT22;25200;53.394;10.414;2023-11-18T01:48:36;5.80;90.70
39519;DHT22;25200;53.394;10.414;2023-11-18T01:51:05;5.80;90.70
39519;DHT22;25200;53.394;10.414;2023-11-18T01:53:32;5.80;90.70
39519;DHT22;25200;53.394;10.414;2023-11-18T01:56:00;5.80;90.80
39519;DHT22;25200;53.394;10.414;2023-11-18T01:58:26;5.80;90.70
39519;DHT22;25200;53.394;10.414;2023-11-18T02:00:53;5.80;90.60
39519;DHT22;25200;53.394;10.414;2023-11-18T02:03:18;5.80;90.60
39519;DHT22;25200;53.394;10.414;2023-11-18T02:05:45;5.80;90.70
39519;DHT22;25200;53.394;10.414;2023-11-18T02:08:11;5.80;90.60
39519;DHT22;25200;53.394;10.414;2023-11-18T02:10:54;5.80;90.70
39519;DHT22;25200;53.394;10.414;2023-11-18T02:13:26;5.80;90.70
39519;DHT22;25200;53.394;10.414;2023-11-18T02:15:56;5.80;90.70
39519;DHT22;25200;53.394;10.414;2023-11-18T02:18:31;5.80;90.70
39519;DHT22;25200;53.394;10.414;2023-11-18T02:20:58;5.80;90.70
39519;DHT22;25200;53.394;10.414;2023-11-18T02:23:25;5.80;90.60
39519;DHT22;25200;53.394;10.414;2023-11-18T02:25:54;5.80;90.60
39519;DHT22;25200;53.394;10.414;2023-11-18T02:28:21;5.80;90.60
39519;DHT22;25200;53.394;10.414;2023-11-18T02:30:47;5.80;90.70
39519;DHT22;25200;53.394;10.414;2023-11-18T02:33:26;5.80;90.60
39519;DHT22;25200;53.394;10.414;2023-11-18T02:36:01;5.80;90.70
39519;DHT22;25200;53.394;10.414;2023-11-18T02:38:33;5.80;90.60
39519;DHT22;25200;53.394;10.414;2023-11-18T02:41:05;5.80;90.70
39519;DHT22;25200;53.394;10.414;2023-11-18T02:43:36;5.80;90.70
39519;DHT22;25200;53.394;10.414;2023-11-18T02:46:04;5.80;90.70
39519;DHT22;25200;53.394;10.414;2023-11-18T02:48:31;5.80;90.70
39519;DHT22;25200;53.394;10.414;2023-11-18T02:50:58;5.90;90.70
39519;DHT22;25200;53.394;10.414;2023-11-18T02:53:25;5.80;90.70
39519;DHT22;25200;53.394;10.414;2023-11-18T02:55:52;5.80;90.70
39519;DHT22;25200;53.394;10.414;2023-11-18T02:58:19;5.90;90.70
39519;DHT22;25200;53.394;10.414;2023-11-18T03:00:44;5.80;90.60
39519;DHT22;25200;53.394;10.414;2023-11-18T03:03:10;5.80;90.70
39519;DHT22;25200;53.394;10.414;2023-11-18T03:05:37;5.90;90.80
39519;DHT22;25200;53.394;10.414;2023-11-18T03:08:03;5.80;90.70
39519;DHT22;25200;53.394;10.414;2023-11-18T03:10:32;5.90;90.70
39519;DHT22;25200;53.394;10.414;2023-11-18T03:13:01;5.90;90.70
39519;DHT22;25200;53.394;10.414;2023-11-18T03:15:27;5.90;90.70
39519;DHT22;25200;53.394;10.414;2023-11-18T03:17:54;5.90;90.70
39519;DHT22;25200;53.394;10.414;2023-11-18T03:20:22;5.90;90.70
39519;DHT22;25200;53.394;10.414;2023-11-18T03:22:49;5.90;90.60
39519;DHT22;25200;53.394;10.414;2023-11-18T03:25:17;5.90;90.70
39519;DHT22;25200;53.394;10.414;2023-11-18T03:27:43;5.90;90.70
39519;DHT22;25200;53.394;10.414;2023-11-18T03:30:12;5.90;90.70
39519;DHT22;25200;53.394;10.414;2023-11-18T03:32:39;5.90;90.80
39519;DHT22;25200;53.394;10.414;2023-11-18T03:35:08;5.90;90.80
39519;DHT22;25200;53.394;10.414;2023-11-18T03:37:43;5.90;90.80
39519;DHT22;25200;53.394;10.414;2023-11-18T03:40:10;5.90;90.80
39519;DHT22;25200;53.394;10.414;2023-11-18T03:42:37;5.90;90.70
39519;DHT22;25200;53.394;10.414;2023-11-18T03:45:03;5.90;90.80
39519;DHT22;25200;53.394;10.414;2023-11-18T03:47:29;5.90;90.80
39519;DHT22;25200;53.394;10.414;2023-11-18T03:49:56;5.90;90.70
39519;DHT22;25200;53.394;10.414;2023-11-18T03:52:22;5.90;90.70
39519;DHT22;25200;53.394;10.414;2023-11-18T03:54:48;5.90;90.70
39519;DHT22;25200;53.394;10.414;2023-11-18T03:57:14;5.90;90.70
39519;DHT22;25200;53.394;10.414;2023-11-18T03:59:40;5.90;90.70
39519;DHT22;25200;53.394;10.414;2023-11-18T04:02:08;5.90;90.80
39519;DHT22;25200;53.394;10.414;2023-11-18T04:04:37;5.90;90.80
39519;DHT22;25200;53.394;10.414;2023-11-18T04:07:03;5.90;90.80
39519;DHT22;25200;53.394;10.414;2023-11-18T04:09:29;5.90;90.80
39519;DHT22;25200;53.394;10.414;2023-11-18T04:11:55;5.90;90.70
39519;DHT22;25200;53.394;10.414;2023-11-18T04:14:21;5.90;90.70
39519;DHT22;25200;53.394;10.414;2023-11-18T04:16:50;5.90;90.70
39519;DHT22;25200;53.394;10.414;2023-11-18T04:19:16;5.90;90.70
39519;DHT22;25200;53.394;10.414;2023-11-18T04:21:41;5.90;90.70
39519;DHT22;25200;53.394;10.414;2023-11-18T04:24:07;6.00;90.80
39519;DHT22;25200;53.394;10.414;2023-11-18T04:26:33;5.90;90.70
39519;DHT22;25200;53.394;10.414;2023-11-18T04:28:59;6.00;90.80
39519;DHT22;25200;53.394;10.414;2023-11-18T04:31:24;5.90;90.70
39519;DHT22;25200;53.394;10.414;2023-11-18T04:33:50;5.90;90.70
39519;DHT22;25200;53.394;10.414;2023-11-18T04:36:16;6.00;90.70
39519;DHT22;25200;53.394;10.414;2023-11-18T04:38:42;5.90;90.70
39519;DHT22;25200;53.394;10.414;2023-11-18T04:41:09;5.90;90.70
39519;DHT22;25200;53.394;10.414;2023-11-18T04:43:35;6.00;90.80
39519;DHT22;25200;53.394;10.414;2023-11-18T04:46:00;5.90;90.70
39519;DHT22;25200;53.394;10.414;2023-11-18T04:48:26;5.90;90.70
39519;DHT22;25200;53.394;10.414;2023-11-18T04:50:51;6.00;90.80
39519;DHT22;25200;53.394;10.414;2023-11-18T04:53:17;5.90;90.70
39519;DHT22;25200;53.394;10.414;2023-11-18T04:55:43;6.00;90.80
39519;DHT22;25200;53.394;10.414;2023-11-18T04:58:08;5.90;90.80
39519;DHT22;25200;53.394;10.414;2023-11-18T05:00:38;5.90;90.70
39519;DHT22;25200;53.394;10.414;2023-11-18T05:03:07;5.90;90.70
39519;DHT22;25200;53.394;10.414;2023-11-18T05:05:38;5.90;90.80
39519;DHT22;25200;53.394;10.414;2023-11-18T05:08:14;5.90;90.70
39519;DHT22;25200;53.394;10.414;2023-11-18T05:10:49;6.00;90.80
39519;DHT22;25200;53.394;10.414;2023-11-18T05:13:16;5.90;90.70
39519;DHT22;25200;53.394;10.414;2023-11-18T05:15:46;5.90;90.70
39519;DHT22;25200;53.394;10.414;2023-11-18T05:18:12;6.00;90.70
39519;DHT22;25200;53.394;10.414;2023-11-18T05:20:43;5.90;90.70
39519;DHT22;25200;53.394;10.414;2023-11-18T05:23:09;5.90;90.80
39519;DHT22;25200;53.394;10.414;2023-11-18T05:25:41;5.90;90.70
39519;DHT22;25200;53.394;10.414;2023-11-18T05:28:08;5.90;90.80
39519;DHT22;25200;53.394;10.414;2023-11-18T05:30:38;5.90;90.80
39519;DHT22;25200;53.394;10.414;2023-11-18T05:33:06;5.90;90.70
39519;DHT22;25200;53.394;10.414;2023-11-18T05:35:33;5.90;90.70
39519;DHT22;25200;53.394;10.414;2023-11-18T05:37:59;5.90;90.70
39519;DHT22;25200;53.394;10.414;2023-11-18T05:40:26;5.80;90.60
39519;DHT22;25200;53.394;10.414;2023-11-18T05:42:52;5.80;90.50
39519;DHT22;25200;53.394;10.414;2023-11-18T05:45:19;5.70;90.60
39519;DHT22;25200;53.394;10.414;2023-11-18T05:47:56;5.70;90.50
39519;DHT22;25200;53.394;10.414;2023-11-18T05:50:23;5.70;90.50
39519;DHT22;25200;53.394;10.414;2023-11-18T05:52:52;5.60;90.40
39519;DHT22;25200;53.394;10.414;2023-11-18T05:55:18;5.50;90.40
39519;DHT22;25200;53.394;10.414;2023-11-18T05:57:44;5.50;90.50
39519;DHT22;25200;53.394;10.414;2023-11-18T06:00:14;5.50;90.40
39519;DHT22;25200;53.394;10.414;2023-11-18T06:02:41;5.50;90.50
39519;DHT22;25200;53.394;10.414;2023-11-18T06:05:07;5.40;90.50
39519;DHT22;25200;53.394;10.414;2023-11-18T06:07:33;5.40;90.50
39519;DHT22;25200;53.394;10.414;2023-11-18T06:10:00;5.40;90.60
39519;DHT22;25200;53.394;10.414;2023-11-18T06:12:29;5.40;90.60
39519;DHT22;25200;53.394;10.414;2023-11-18T06:14:57;5.40;90.60
39519;DHT22;25200;53.394;10.414;2023-11-18T06:17:22;5.40;90.60
39519;DHT22;25200;53.394;10.414;2023-11-18T06:19:49;5.40;90.70
39519;DHT22;25200;53.394;10.414;2023-11-18T06:22:15;5.40;90.70
39519;DHT22;25200;53.394;10.414;2023-11-18T06:24:40;5.40;90.70
39519;DHT22;25200;53.394;10.414;2023-11-18T06:27:06;5.40;90.80
39519;DHT22;25200;53.394;10.414;2023-11-18T06:29:34;5.40;90.80
39519;DHT22;25200;53.394;10.414;2023-11-18T06:32:00;5.40;90.80
39519;DHT22;25200;53.394;10.414;2023-11-18T06:34:26;5.40;90.70
39519;DHT22;25200;53.394;10.414;2023-11-18T06:36:53;5.40;90.80
39519;DHT22;25200;53.394;10.414;2023-11-18T06:39:18;5.40;90.70
39519;DHT22;25200;53.394;10.414;2023-11-18T06:41:45;5.40;90.70
39519;DHT22;25200;53.394;10.414;2023-11-18T06:44:16;5.40;90.70
39519;DHT22;25200;53.394;10.414;2023-11-18T06:46:49;5.30;90.70
39519;DHT22;25200;53.394;10.414;2023-11-18T06:49:16;5.30;90.70
39519;DHT22;25200;53.394;10.414;2023-11-18T06:51:43;5.30;90.70
39519;DHT22;25200;53.394;10.414;2023-11-18T06:54:08;5.30;90.60
39519;DHT22;25200;53.394;10.414;2023-11-18T06:56:36;5.20;90.50
39519;DHT22;25200;53.394;10.414;2023-11-18T06:59:06;5.20;90.60
39519;DHT22;25200;53.394;10.414;2023-11-18T07:01:38;5.20;90.60
39519;DHT22;25200;53.394;10.414;2023-11-18T07:04:06;5.20;90.50
39519;DHT22;25200;53.394;10.414;2023-11-18T07:06:34;5.10;90.50
39519;DHT22;25200;53.394;10.414;2023-11-18T07:09:04;5.10;90.50
39519;DHT22;25200;53.394;10.414;2023-11-18T07:11:34;5.10;90.60
39519;DHT22;25200;53.394;10.414;2023-11-18T07:14:00;5.10;90.60
39519;DHT22;25200;53.394;10.414;2023-11-18T07:16:26;5.10;90.60
39519;DHT22;25200;53.394;10.414;2023-11-18T07:18:52;5.10;90.60
39519;DHT22;25200;53.394;10.414;2023-11-18T07:21:18;5.10;90.60
39519;DHT22;25200;53.394;10.414;2023-11-18T07:23:44;5.10;90.60
39519;DHT22;25200;53.394;10.414;2023-11-18T07:26:10;5.00;90.50
39519;DHT22;25200;53.394;10.414;2023-11-18T07:28:36;5.00;90.60
39519;DHT22;25200;53.394;10.414;2023-11-18T07:31:02;5.00;90.90
39519;DHT22;25200;53.394;10.414;2023-11-18T07:33:30;5.00;90.50
39519;DHT22;25200;53.394;10.414;2023-11-18T07:35:59;5.00;90.50
39519;DHT22;25200;53.394;10.414;2023-11-18T07:38:25;4.90;90.60
39519;DHT22;25200;53.394;10.414;2023-11-18T07:40:52;4.90;90.60
39519;DHT22;25200;53.394;10.414;2023-11-18T07:43:22;4.90;90.50
39519;DHT22;25200;53.394;10.414;2023-11-18T07:45:48;4.90;90.60
39519;DHT22;25200;53.394;10.414;2023-11-18T07:48:18;4.90;90.60
39519;DHT22;25200;53.394;10.414;2023-11-18T07:50:46;4.90;90.60
39519;DHT22;25200;53.394;10.414;2023-11-18T07:53:15;4.90;90.70
39519;DHT22;25200;53.394;10.414;2023-11-18T07:55:41;4.90;90.70
39519;DHT22;25200;53.394;10.414;2023-11-18T07:58:11;4.90;90.70
39519;DHT22;25200;53.394;10.414;2023-11-18T08:00:40;4.90;90.70
39519;DHT22;25200;53.394;10.414;2023-11-18T08:03:06;4.90;90.60
39519;DHT22;25200;53.394;10.414;2023-11-18T08:05:39;4.80;90.70
39519;DHT22;25200;53.394;10.414;2023-11-18T08:08:08;4.90;90.70
39519;DHT22;25200;53.394;10.414;2023-11-18T08:10:36;4.90;90.70
39519;DHT22;25200;53.394;10.414;2023-11-18T08:13:07;4.90;90.70
39519;DHT22;25200;53.394;10.414;2023-11-18T08:15:40;4.90;90.80
39519;DHT22;25200;53.394;10.414;2023-11-18T08:18:07;4.90;90.80
39519;DHT22;25200;53.394;10.414;2023-11-18T08:20:33;4.90;90.80
39519;DHT22;25200;53.394;10.414;2023-11-18T08:22:59;4.90;90.90
39519;DHT22;25200;53.394;10.414;2023-11-18T08:25:24;4.90;90.90
39519;DHT22;25200;53.394;10.414;2023-11-18T08:27:51;4.90;90.90
39519;DHT22;25200;53.394;10.414;2023-11-18T08:30:17;4.90;91.00
39519;DHT22;25200;53.394;10.414;2023-11-18T08:32:46;5.00;91.00
39519;DHT22;25200;53.394;10.414;2023-11-18T08:35:13;5.00;90.90
39519;DHT22;25200;53.394;10.414;2023-11-18T08:37:40;5.00;90.90
39519;DHT22;25200;53.394;10.414;2023-11-18T08:40:07;5.00;90.90
39519;DHT22;25200;53.394;10.414;2023-11-18T08:42:47;5.00;91.00
39519;DHT22;25200;53.394;10.414;2023-11-18T08:45:20;5.10;90.90
39519;DHT22;25200;53.394;10.414;2023-11-18T08:47:47;5.10;91.00
39519;DHT22;25200;53.394;10.414;2023-11-18T08:50:16;5.10;91.00
39519;DHT22;25200;53.394;10.414;2023-11-18T08:52:43;5.20;91.00
39519;DHT22;25200;53.394;10.414;2023-11-18T08:55:15;5.20;91.00
39519;DHT22;25200;53.394;10.414;2023-11-18T08:57:49;5.20;90.90
39519;DHT22;25200;53.394;10.414;2023-11-18T09:00:31;5.20;90.90
39519;DHT22;25200;53.394;10.414;2023-11-18T09:03:28;5.20;90.90
39519;DHT22;25200;53.394;10.414;2023-11-18T09:05:58;5.20;90.90
39519;DHT22;25200;53.394;10.414;2023-11-18T09:08:24;5.20;90.90
39519;DHT22;25200;53.394;10.414;2023-11-18T09:10:50;5.20;90.90
39519;DHT22;25200;53.394;10.414;2023-11-18T09:13:23;5.20;90.90
39519;DHT22;25200;53.394;10.414;2023-11-18T09:16:01;5.30;91.00
39519;DHT22;25200;53.394;10.414;2023-11-18T09:18:31;5.30;90.90
39519;DHT22;25200;53.394;10.414;2023-11-18T09:20:59;5.30;90.90
39519;DHT22;25200;53.394;10.414;2023-11-18T09:23:28;5.40;90.90
39519;DHT22;25200;53.394;10.414;2023-11-18T09:25:54;5.40;90.80
39519;DHT22;25200;53.394;10.414;2023-11-18T09:28:21;5.50;90.90
39519;DHT22;25200;53.394;10.414;2023-11-18T09:30:50;5.50;90.80
39519;DHT22;25200;53.394;10.414;2023-11-18T09:33:20;5.60;90.70
39519;DHT22;25200;53.394;10.414;2023-11-18T09:35:58;5.70;90.70
39519;DHT22;25200;53.394;10.414;2023-11-18T09:40:53;5.70;90.70
39519;DHT22;25200;53.394;10.414;2023-11-18T09:43:20;5.80;90.70
39519;DHT22;25200;53.394;10.414;2023-11-18T09:45:55;5.70;90.70
39519;DHT22;25200;53.394;10.414;2023-11-18T09:48:21;5.70;90.60
39519;DHT22;25200;53.394;10.414;2023-11-18T09:50:52;5.70;90.60
39519;DHT22;25200;53.394;10.414;2023-11-18T09:53:18;5.70;90.70
39519;DHT22;25200;53.394;10.414;2023-11-18T09:56:05;5.70;90.70
39519;DHT22;25200;53.394;10.414;2023-11-18T09:58:44;5.60;90.70
39519;DHT22;25200;53.394;10.414;2023-11-18T10:01:15;5.60;90.70
39519;DHT22;25200;53.394;10.414;2023-11-18T10:03:44;5.60;90.70
39519;DHT22;25200;53.394;10.414;2023-11-18T10:06:12;5.60;90.80
39519;DHT22;25200;53.394;10.414;2023-11-18T10:08:40;5.60;90.80
39519;DHT22;25200;53.394;10.414;2023-11-18T10:11:06;5.60;90.80
39519;DHT22;25200;53.394;10.414;2023-11-18T10:13:35;5.60;90.80
39519;DHT22;25200;53.394;10.414;2023-11-18T10:16:09;5.70;90.80
39519;DHT22;25200;53.394;10.414;2023-11-18T10:18:35;5.70;90.80
39519;DHT22;25200;53.394;10.414;2023-11-18T10:21:02;5.70;90.80
39519;DHT22;25200;53.394;10.414;2023-11-18T10:23:33;5.70;90.80
39519;DHT22;25200;53.394;10.414;2023-11-18T10:26:00;5.80;90.80
39519;DHT22;25200;53.394;10.414;2023-11-18T10:28:31;5.80;90.80
39519;DHT22;25200;53.394;10.414;2023-11-18T10:31:03;5.90;90.80
39519;DHT22;25200;53.394;10.414;2023-11-18T10:33:39;5.90;90.70
39519;DHT22;25200;53.394;10.414;2023-11-18T10:36:21;6.00;90.70
39519;DHT22;25200;53.394;10.414;2023-11-18T10:38:51;6.00;90.70
39519;DHT22;25200;53.394;10.414;2023-11-18T10:41:21;6.00;90.70
39519;DHT22;25200;53.394;10.414;2023-11-18T10:43:48;6.10;90.70
39519;DHT22;25200;53.394;10.414;2023-11-18T10:46:15;6.10;90.70
39519;DHT22;25200;53.394;10.414;2023-11-18T10:48:46;6.20;90.70
39519;DHT22;25200;53.394;10.414;2023-11-18T10:51:19;6.20;90.70
39519;DHT22;25200;53.394;10.414;2023-11-18T10:53:50;6.30;90.70
39519;DHT22;25200;53.394;10.414;2023-11-18T10:56:27;6.40;90.70
39519;DHT22;25200;53.394;10.414;2023-11-18T10:59:07;6.50;90.70
39519;DHT22;25200;53.394;10.414;2023-11-18T11:01:43;6.60;90.80
39519;DHT22;25200;53.394;10.414;2023-11-18T11:04:12;6.70;90.60
39519;DHT22;25200;53.394;10.414;2023-11-18T11:06:45;6.80;90.60
39519;DHT22;25200;53.394;10.414;2023-11-18T11:09:22;6.90;90.60
39519;DHT22;25200;53.394;10.414;2023-11-18T11:11:57;6.90;90.50
39519;DHT22;25200;53.394;10.414;2023-11-18T11:14:52;7.00;90.50
39519;DHT22;25200;53.394;10.414;2023-11-18T11:17:20;7.10;90.50
39519;DHT22;25200;53.394;10.414;2023-11-18T11:23:35;7.20;90.40
39519;DHT22;25200;53.394;10.414;2023-11-18T11:25:50;7.30;90.50
39519;DHT22;25200;53.394;10.414;2023-11-18T11:28:22;7.30;90.40
39519;DHT22;25200;53.394;10.414;2023-11-18T11:30:58;7.30;90.50
39519;DHT22;25200;53.394;10.414;2023-11-18T11:33:32;7.30;90.40
39519;DHT22;25200;53.394;10.414;2023-11-18T11:36:11;7.30;90.30
39519;DHT22;25200;53.394;10.414;2023-11-18T11:38:37;7.30;90.30
39519;DHT22;25200;53.394;10.414;2023-11-18T11:41:06;7.30;90.30
39519;DHT22;25200;53.394;10.414;2023-11-18T11:43:34;7.30;90.30
39519;DHT22;25200;53.394;10.414;2023-11-18T11:46:03;7.30;90.20
39519;DHT22;25200;53.394;10.414;2023-11-18T11:48:37;7.20;90.20
39519;DHT22;25200;53.394;10.414;2023-11-18T11:54:13;7.30;90.40
39519;DHT22;25200;53.394;10.414;2023-11-18T11:56:45;7.30;90.30
39519;DHT22;25200;53.394;10.414;2023-11-18T11:59:36;7.30;90.30
39519;DHT22;25200;53.394;10.414;2023-11-18T12:02:24;7.40;90.40
39519;DHT22;25200;53.394;10.414;2023-11-18T12:04:53;7.40;90.30
39519;DHT22;25200;53.394;10.414;2023-11-18T12:07:20;7.40;90.10
39519;DHT22;25200;53.394;10.414;2023-11-18T12:09:49;7.40;90.10
39519;DHT22;25200;53.394;10.414;2023-11-18T12:12:21;7.40;89.30
39519;DHT22;25200;53.394;10.414;2023-11-18T12:14:57;7.40;90.10
39519;DHT22;25200;53.394;10.414;2023-11-18T12:20:52;7.40;90.10
39519;DHT22;25200;53.394;10.414;2023-11-18T12:23:21;7.40;90.10
39519;DHT22;25200;53.394;10.414;2023-11-18T12:25:51;7.40;90.00
39519;DHT22;25200;53.394;10.414;2023-11-18T12:28:28;7.40;90.00
39519;DHT22;25200;53.394;10.414;2023-11-18T12:30:56;7.40;89.80
39519;DHT22;25200;53.394;10.414;2023-11-18T12:33:24;7.40;89.80
39519;DHT22;25200;53.394;10.414;2023-11-18T12:41:38;7.30;89.60
39519;DHT22;25200;53.394;10.414;2023-11-18T12:44:16;7.30;89.90
39519;DHT22;25200;53.394;10.414;2023-11-18T12:46:53;7.40;90.00
39519;DHT22;25200;53.394;10.414;2023-11-18T12:49:20;7.40;90.00
39519;DHT22;25200;53.394;10.414;2023-11-18T12:51:53;7.40;89.90
39519;DHT22;25200;53.394;10.414;2023-11-18T12:54:21;7.30;90.00
39519;DHT22;25200;53.394;10.414;2023-11-18T12:56:47;7.40;90.10
39519;DHT22;25200;53.394;10.414;2023-11-18T12:59:19;7.30;90.00
39519;DHT22;25200;53.394;10.414;2023-11-18T13:01:50;7.30;90.00
39519;DHT22;25200;53.394;10.414;2023-11-18T13:04:32;7.30;90.00
39519;DHT22;25200;53.394;10.414;2023-11-18T13:07:00;7.30;90.00
39519;DHT22;25200;53.394;10.414;2023-11-18T13:09:26;7.30;90.10
39519;DHT22;25200;53.394;10.414;2023-11-18T13:11:59;7.30;90.10
39519;DHT22;25200;53.394;10.414;2023-11-18T13:14:26;7.30;90.10
39519;DHT22;25200;53.394;10.414;2023-11-18T13:16:53;7.30;90.10
39519;DHT22;25200;53.394;10.414;2023-11-18T13:19:26;7.30;90.10
39519;DHT22;25200;53.394;10.414;2023-11-18T13:22:00;7.30;90.10
39519;DHT22;25200;53.394;10.414;2023-11-18T13:24:27;7.20;90.10
39519;DHT22;25200;53.394;10.414;2023-11-18T13:26:56;7.20;90.10
39519;DHT22;25200;53.394;10.414;2023-11-18T13:29:25;7.20;90.10
39519;DHT22;25200;53.394;10.414;2023-11-18T13:31:51;7.20;90.10
39519;DHT22;25200;53.394;10.414;2023-11-18T13:34:20;7.20;90.10
39519;DHT22;25200;53.394;10.414;2023-11-18T13:36:49;7.20;90.10
39519;DHT22;25200;53.394;10.414;2023-11-18T13:39:19;7.20;90.10
39519;DHT22;25200;53.394;10.414;2023-11-18T13:41:49;7.20;90.10
39519;DHT22;25200;53.394;10.414;2023-11-18T13:44:33;7.20;90.10
39519;DHT22;25200;53.394;10.414;2023-11-18T13:47:07;7.20;90.20
39519;DHT22;25200;53.394;10.414;2023-11-18T13:49:37;7.20;90.20
39519;DHT22;25200;53.394;10.414;2023-11-18T13:52:06;7.20;90.20
39519;DHT22;25200;53.394;10.414;2023-11-18T13:54:37;7.20;90.20
39519;DHT22;25200;53.394;10.414;2023-11-18T13:57:03;7.20;90.40
39519;DHT22;25200;53.394;10.414;2023-11-18T13:59:29;7.20;90.20
39519;DHT22;25200;53.394;10.414;2023-11-18T14:01:56;7.20;90.20
39519;DHT22;25200;53.394;10.414;2023-11-18T14:04:27;7.20;90.20
39519;DHT22;25200;53.394;10.414;2023-11-18T14:06:56;7.20;90.20
39519;DHT22;25200;53.394;10.414;2023-11-18T14:09:22;7.20;90.20
39519;DHT22;25200;53.394;10.414;2023-11-18T14:11:51;7.20;90.20
39519;DHT22;25200;53.394;10.414;2023-11-18T14:14:17;7.20;90.20
39519;DHT22;25200;53.394;10.414;2023-11-18T14:16:43;7.20;90.20
39519;DHT22;25200;53.394;10.414;2023-11-18T14:19:09;7.20;90.20
39519;DHT22;25200;53.394;10.414;2023-11-18T14:21:36;7.20;90.10
39519;DHT22;25200;53.394;10.414;2023-11-18T14:24:02;7.20;90.20
39519;DHT22;25200;53.394;10.414;2023-11-18T14:26:29;7.20;90.20
39519;DHT22;25200;53.394;10.414;2023-11-18T14:28:57;7.20;90.20
39519;DHT22;25200;53.394;10.414;2023-11-18T14:31:24;7.20;90.10
39519;DHT22;25200;53.394;10.414;2023-11-18T14:33:50;7.20;90.10
39519;DHT22;25200;53.394;10.414;2023-11-18T14:36:19;7.20;90.10
39519;DHT22;25200;53.394;10.414;2023-11-18T14:38:45;7.10;90.10
39519;DHT22;25200;53.394;10.414;2023-11-18T14:41:12;7.10;90.10
39519;DHT22;25200;53.394;10.414;2023-11-18T14:43:38;7.10;90.10
39519;DHT22;25200;53.394;10.414;2023-11-18T14:46:04;7.10;90.10
39519;DHT22;25200;53.394;10.414;2023-11-18T14:48:29;7.10;90.10
39519;DHT22;25200;53.394;10.414;2023-11-18T14:50:55;7.10;90.10
39519;DHT22;25200;53.394;10.414;2023-11-18T14:53:22;7.10;90.10
39519;DHT22;25200;53.394;10.414;2023-11-18T14:55:48;7.10;90.10
39519;DHT22;25200;53.394;10.414;2023-11-18T14:58:14;7.10;90.10
39519;DHT22;25200;53.394;10.414;2023-11-18T15:00:40;7.10;90.10
39519;DHT22;25200;53.394;10.414;2023-11-18T15:03:08;7.00;90.10
39519;DHT22;25200;53.394;10.414;2023-11-18T15:05:34;7.00;90.00
39519;DHT22;25200;53.394;10.414;2023-11-18T15:07:59;7.00;90.00
39519;DHT22;25200;53.394;10.414;2023-11-18T15:10:27;7.00;90.00
39519;DHT22;25200;53.394;10.414;2023-11-18T15:12:58;6.90;90.10
39519;DHT22;25200;53.394;10.414;2023-11-18T15:15:25;6.90;90.00
39519;DHT22;25200;53.394;10.414;2023-11-18T15:17:58;6.90;90.10
39519;DHT22;25200;53.394;10.414;2023-11-18T15:20:25;6.90;90.10
39519;DHT22;25200;53.394;10.414;2023-11-18T15:22:51;6.90;90.40
39519;DHT22;25200;53.394;10.414;2023-11-18T15:25:17;6.90;90.10
39519;DHT22;25200;53.394;10.414;2023-11-18T15:27:44;6.90;90.10
39519;DHT22;25200;53.394;10.414;2023-11-18T15:30:13;6.80;90.10
39519;DHT22;25200;53.394;10.414;2023-11-18T15:32:40;6.80;90.10
39519;DHT22;25200;53.394;10.414;2023-11-18T15:35:07;6.80;90.10
39519;DHT22;25200;53.394;10.414;2023-11-18T15:37:37;6.80;90.10
39519;DHT22;25200;53.394;10.414;2023-11-18T15:40:09;6.80;90.10
39519;DHT22;25200;53.394;10.414;2023-11-18T15:42:43;6.80;90.10
39519;DHT22;25200;53.394;10.414;2023-11-18T15:45:15;6.80;90.10
39519;DHT22;25200;53.394;10.414;2023-11-18T15:47:43;6.80;90.20
39519;DHT22;25200;53.394;10.414;2023-11-18T15:50:10;6.80;90.20
39519;DHT22;25200;53.394;10.414;2023-11-18T15:52:45;6.70;90.20
39519;DHT22;25200;53.394;10.414;2023-11-18T15:55:14;6.70;90.10
39519;DHT22;25200;53.394;10.414;2023-11-18T15:57:51;6.70;90.20